Time;durP1;ratioP1;P1;durP2;ratioP2;P2;SDS_P1;SDS_P2;PMS_P1;PMS_P2;Temp;Humidity;BMP_temperature;BMP_pressure;BME280_temperature;BME280_humidity;BME280_pressure;Samples;Min_cycle;Max_cycle;Signal;HPM_P1;HPM_P2
2022/07/10 00:01:18;;;;;;;5.95;0.82;;;;;;;;;;5018257;28;20033;-74
2022/07/10 00:03:45;;;;;;;7.25;1.40;;;;;;;;;;5018395;28;20026;-74
2022/07/10 00:06:11;;;;;;;7.60;1.10;;;;;;;;;;5018177;28;20446;-74
2022/07/10 00:08:37;;;;;;;4.60;0.80;;;;;;;;;;5031283;28;20026;-74
2022/07/10 00:11:03;;;;;;;3.95;0.95;;;;;;;;;;5038108;28;20037;-74
2022/07/10 00:13:29;;;;;;;9.57;1.10;;;;;;;;;;5038078;28;20472;-74
2022/07/10 00:15:55;;;;;;;4.97;1.00;;;;;;;;;;5037800;28;20456;-74
2022/07/10 00:18:21;;;;;;;6.82;1.00;;;;;;;;;;5024478;28;20029;-74
2022/07/10 00:20:47;;;;;;;7.18;1.27;;;;;;;;;;5016714;28;20036;-75
2022/07/10 00:23:13;;;;;;;3.95;1.25;;;;;;;;;;5016872;28;20053;-74
2022/07/10 00:25:39;;;;;;;4.28;0.90;;;;;;;;;;5018108;28;20030;-75
2022/07/10 00:28:05;;;;;;;5.95;1.00;;;;;;;;;;5018182;28;20030;-74
2022/07/10 00:30:31;;;;;;;7.07;1.33;;;;;;;;;;5017831;28;20483;-74
2022/07/10 00:32:58;;;;;;;6.35;1.27;;;;;;;;;;5018216;28;20389;-75
2022/07/10 00:35:24;;;;;;;4.43;0.90;;;;;;;;;;5017964;28;20022;-74
2022/07/10 00:37:50;;;;;;;6.07;1.25;;;;;;;;;;5018232;28;20054;-74
2022/07/10 00:40:16;;;;;;;4.78;1.08;;;;;;;;;;5017942;28;20017;-74
2022/07/10 00:42:42;;;;;;;7.68;1.20;;;;;;;;;;5018225;28;20420;-75
2022/07/10 00:45:09;;;;;;;6.53;1.42;;;;;;;;;;5017831;28;20033;-74
2022/07/10 00:47:35;;;;;;;6.97;1.05;;;;;;;;;;5018073;28;20022;-75
2022/07/10 00:50:01;;;;;;;5.57;1.00;;;;;;;;;;5017904;28;20022;-74
2022/07/10 00:52:27;;;;;;;6.55;1.10;;;;;;;;;;5017932;28;20079;-74
2022/07/10 00:54:53;;;;;;;6.50;1.23;;;;;;;;;;5018077;28;20473;-74
2022/07/10 00:57:21;;;;;;;7.35;1.50;;;;;;;;;;5018066;28;20033;-74
2022/07/10 00:59:48;;;;;;;7.57;1.60;;;;;;;;;;5017866;28;20022;-74
2022/07/10 01:02:14;;;;;;;6.53;1.20;;;;;;;;;;5017907;28;20455;-74
2022/07/10 01:04:40;;;;;;;5.53;1.10;;;;;;;;;;5014651;28;20021;-75
2022/07/10 01:07:06;;;;;;;8.75;1.50;;;;;;;;;;5015180;28;20030;-74
2022/07/10 01:09:33;;;;;;;7.03;1.77;;;;;;;;;;5034523;28;20030;-74
2022/07/10 01:12:02;;;;;;;7.22;1.52;;;;;;;;;;5034358;28;20054;-74
2022/07/10 01:14:30;;;;;;;5.95;1.20;;;;;;;;;;5034447;28;20043;-74
2022/07/10 01:16:56;;;;;;;10.02;1.65;;;;;;;;;;5032470;28;20056;-75
2022/07/10 01:19:22;;;;;;;4.97;1.48;;;;;;;;;;5014500;28;20030;-74
2022/07/10 01:21:48;;;;;;;4.85;1.33;;;;;;;;;;5014365;28;20045;-75
2022/07/10 01:24:14;;;;;;;6.68;1.67;;;;;;;;;;5014525;28;20033;-75
2022/07/10 01:26:42;;;;;;;5.13;1.30;;;;;;;;;;5014419;28;20033;-74
2022/07/10 01:29:09;;;;;;;11.50;1.70;;;;;;;;;;5014463;28;20033;-75
2022/07/10 01:31:35;;;;;;;9.40;1.55;;;;;;;;;;5014027;28;20057;-75
2022/07/10 01:34:02;;;;;;;11.43;2.13;;;;;;;;;;5014321;28;20022;-75
2022/07/10 01:36:29;;;;;;;8.07;1.70;;;;;;;;;;5012956;28;20026;-75
2022/07/10 01:38:56;;;;;;;8.65;1.55;;;;;;;;;;5014365;28;20232;-74
2022/07/10 01:41:23;;;;;;;7.50;1.63;;;;;;;;;;5014248;28;20026;-75
2022/07/10 01:43:49;;;;;;;10.05;1.58;;;;;;;;;;5014229;28;20373;-75
2022/07/10 01:46:15;;;;;;;9.80;1.63;;;;;;;;;;5013903;28;20105;-74
2022/07/10 01:48:41;;;;;;;14.00;1.58;;;;;;;;;;5014255;28;20026;-75
2022/07/10 01:51:08;;;;;;;7.82;1.38;;;;;;;;;;5013743;28;20030;-75
2022/07/10 01:53:34;;;;;;;8.93;1.73;;;;;;;;;;5012672;28;20022;-74
2022/07/10 01:56:03;;;;;;;10.55;2.22;;;;;;;;;;5013966;28;20095;-75
2022/07/10 01:58:29;;;;;;;8.25;1.40;;;;;;;;;;5013920;28;20449;-74
2022/07/10 02:00:55;;;;;;;6.32;1.42;;;;;;;;;;5013778;28;20022;-74
2022/07/10 02:06:07;;;;;;;7.68;1.48;;;;;;;;;;5013465;28;20064;-74
2022/07/10 02:08:33;;;;;;;5.05;1.40;;;;;;;;;;5025967;28;20079;-75
2022/07/10 02:10:59;;;;;;;5.20;1.13;;;;;;;;;;5033400;28;20052;-74
2022/07/10 02:13:27;;;;;;;8.52;1.65;;;;;;;;;;5033587;28;20483;-74
2022/07/10 02:15:53;;;;;;;9.30;1.73;;;;;;;;;;5032109;28;20163;-75
2022/07/10 02:18:20;;;;;;;10.95;2.08;;;;;;;;;;5020153;28;20152;-74
2022/07/10 02:20:46;;;;;;;6.13;1.70;;;;;;;;;;5013313;28;20045;-75
2022/07/10 02:23:12;;;;;;;4.72;1.65;;;;;;;;;;5012065;28;20030;-74
2022/07/10 02:25:38;;;;;;;11.15;1.52;;;;;;;;;;5013425;28;20072;-75
2022/07/10 02:28:04;;;;;;;6.20;1.70;;;;;;;;;;5013360;28;20572;-74
2022/07/10 02:30:30;;;;;;;10.45;1.80;;;;;;;;;;5011559;28;20100;-74
2022/07/10 02:32:57;;;;;;;4.38;1.50;;;;;;;;;;5013234;28;20073;-74
2022/07/10 02:35:23;;;;;;;3.47;1.30;;;;;;;;;;5013047;28;20033;-74
2022/07/10 02:37:49;;;;;;;8.02;1.60;;;;;;;;;;5013199;28;20034;-75
2022/07/10 02:40:15;;;;;;;5.70;1.20;;;;;;;;;;5012975;28;20018;-74
2022/07/10 02:42:41;;;;;;;8.77;1.67;;;;;;;;;;5013113;28;20373;-74
2022/07/10 02:45:07;;;;;;;6.65;1.45;;;;;;;;;;5012774;28;20069;-75
2022/07/10 02:47:33;;;;;;;7.10;1.40;;;;;;;;;;5013098;28;20117;-74
2022/07/10 02:49:59;;;;;;;10.10;1.48;;;;;;;;;;5012836;28;20109;-74
2022/07/10 02:52:25;;;;;;;11.55;1.55;;;;;;;;;;5012835;28;20026;-74
2022/07/10 02:54:52;;;;;;;7.07;1.20;;;;;;;;;;5012892;28;20457;-74
2022/07/10 02:57:18;;;;;;;9.85;1.42;;;;;;;;;;5012880;28;20077;-74
2022/07/10 02:59:44;;;;;;;8.57;1.55;;;;;;;;;;5012767;28;20029;-74
2022/07/10 03:02:10;;;;;;;7.53;1.40;;;;;;;;;;5012606;28;20385;-75
2022/07/10 03:04:36;;;;;;;11.75;1.75;;;;;;;;;;5012696;28;20042;-75
2022/07/10 03:07:02;;;;;;;7.53;1.30;;;;;;;;;;5012565;28;20110;-75
2022/07/10 03:09:28;;;;;;;6.03;1.20;;;;;;;;;;5032414;28;20167;-75
2022/07/10 03:11:54;;;;;;;6.60;1.27;;;;;;;;;;5032237;28;20066;-75
2022/07/10 03:14:20;;;;;;;5.47;1.27;;;;;;;;;;5030913;28;20025;-74
2022/07/10 03:16:47;;;;;;;6.90;1.33;;;;;;;;;;5031523;28;20030;-74
2022/07/10 03:19:13;;;;;;;7.18;1.23;;;;;;;;;;5012503;28;20014;-74
2022/07/10 03:21:39;;;;;;;7.95;1.00;;;;;;;;;;5012208;28;20037;-75
2022/07/10 03:24:05;;;;;;;7.32;1.42;;;;;;;;;;5012475;28;20030;-75
2022/07/10 03:26:31;;;;;;;10.35;2.53;;;;;;;;;;5012020;28;20030;-74
2022/07/10 03:28:58;;;;;;;9.73;1.20;;;;;;;;;;5012472;28;20092;-75
2022/07/10 03:31:24;;;;;;;5.97;1.30;;;;;;;;;;5011922;28;20053;-74
2022/07/10 03:33:52;;;;;;;7.03;1.20;;;;;;;;;;5012266;28;20022;-74
2022/07/10 03:36:18;;;;;;;7.20;1.35;;;;;;;;;;5012122;28;20022;-74
2022/07/10 03:38:46;;;;;;;7.18;1.38;;;;;;;;;;5012204;28;20030;-75
2022/07/10 03:41:12;;;;;;;6.20;1.20;;;;;;;;;;5012013;28;20151;-74
2022/07/10 03:43:38;;;;;;;9.57;1.35;;;;;;;;;;5012246;28;20030;-74
2022/07/10 03:46:04;;;;;;;6.85;1.35;;;;;;;;;;5011902;28;20026;-75
2022/07/10 03:48:30;;;;;;;9.05;1.17;;;;;;;;;;5012230;28;20349;-74
2022/07/10 03:50:56;;;;;;;12.90;1.40;;;;;;;;;;5011826;28;20041;-75
2022/07/10 03:53:22;;;;;;;12.55;1.58;;;;;;;;;;5012115;28;20076;-74
2022/07/10 03:55:49;;;;;;;10.77;1.50;;;;;;;;;;5012060;28;20096;-75
2022/07/10 03:58:15;;;;;;;6.32;1.08;;;;;;;;;;5011925;28;20018;-74
2022/07/10 04:00:42;;;;;;;2.38;1.00;;;;;;;;;;5011505;28;20030;-74
2022/07/10 04:03:08;;;;;;;7.60;1.13;;;;;;;;;;5011966;28;20029;-74
2022/07/10 04:05:35;;;;;;;9.05;1.73;;;;;;;;;;5011747;28;20076;-74
2022/07/10 04:08:01;;;;;;;6.57;1.75;;;;;;;;;;5019893;28;20030;-74
2022/07/10 04:10:28;;;;;;;8.18;1.33;;;;;;;;;;5031326;28;20463;-75
2022/07/10 04:12:55;;;;;;;8.38;1.40;;;;;;;;;;5031636;28;20384;-75
2022/07/10 04:15:21;;;;;;;6.85;1.10;;;;;;;;;;5031347;28;20037;-74
2022/07/10 04:17:48;;;;;;;6.90;1.17;;;;;;;;;;5022776;28;20535;-74
2022/07/10 04:20:14;;;;;;;6.70;1.48;;;;;;;;;;5011611;28;20076;-75
2022/07/10 04:22:40;;;;;;;9.27;1.10;;;;;;;;;;5011846;28;20064;-75
2022/07/10 04:25:07;;;;;;;8.82;1.00;;;;;;;;;;5011734;28;20034;-74
2022/07/10 04:27:33;;;;;;;9.52;1.10;;;;;;;;;;5011798;28;20054;-75
2022/07/10 04:29:59;;;;;;;8.93;1.48;;;;;;;;;;5011397;28;20042;-75
2022/07/10 04:32:25;;;;;;;7.35;1.23;;;;;;;;;;5011634;28;20038;-74
2022/07/10 04:34:51;;;;;;;5.10;0.90;;;;;;;;;;5010378;28;20022;-74
2022/07/10 04:37:17;;;;;;;9.43;1.52;;;;;;;;;;5011618;28;20030;-74
2022/07/10 04:39:44;;;;;;;4.80;1.25;;;;;;;;;;5013930;28;20026;-75
2022/07/10 04:42:10;;;;;;;10.75;1.15;;;;;;;;;;5015276;28;20037;-74
2022/07/10 04:44:36;;;;;;;7.05;1.20;;;;;;;;;;5015227;28;20776;-75
2022/07/10 04:47:03;;;;;;;11.05;1.70;;;;;;;;;;5015139;28;20461;-74
2022/07/10 04:49:29;;;;;;;9.15;1.10;;;;;;;;;;5015202;28;20029;-74
2022/07/10 04:51:58;;;;;;;7.35;1.13;;;;;;;;;;5014987;28;20084;-74
2022/07/10 04:54:25;;;;;;;12.40;1.60;;;;;;;;;;5015129;28;20022;-74
2022/07/10 04:56:51;;;;;;;5.72;1.17;;;;;;;;;;5015058;28;20033;-75
2022/07/10 04:59:17;;;;;;;8.90;1.40;;;;;;;;;;5015044;28;20097;-75
2022/07/10 05:01:43;;;;;;;7.05;1.20;;;;;;;;;;5014819;28;20037;-74
2022/07/10 05:04:09;;;;;;;9.45;1.30;;;;;;;;;;5015009;28;20084;-74
2022/07/10 05:06:35;;;;;;;4.72;0.98;;;;;;;;;;5014571;28;20480;-74
2022/07/10 05:09:02;;;;;;;9.63;1.20;;;;;;;;;;5031102;28;20033;-74
2022/07/10 05:11:28;;;;;;;9.85;1.40;;;;;;;;;;5034895;28;20041;-74
2022/07/10 05:13:54;;;;;;;7.03;1.10;;;;;;;;;;5034535;28;20052;-75
2022/07/10 05:16:20;;;;;;;6.13;1.50;;;;;;;;;;5034265;28;20386;-74
2022/07/10 05:18:46;;;;;;;7.07;1.17;;;;;;;;;;5017622;28;20022;-74
2022/07/10 05:21:12;;;;;;;14.93;1.52;;;;;;;;;;5014367;28;20034;-75
2022/07/10 05:23:39;;;;;;;10.00;1.70;;;;;;;;;;5014662;28;20112;-74
2022/07/10 05:26:05;;;;;;;8.02;1.30;;;;;;;;;;5013131;28;20060;-74
2022/07/10 05:28:31;;;;;;;11.32;1.30;;;;;;;;;;5014595;28;20065;-74
2022/07/10 05:30:58;;;;;;;7.72;1.58;;;;;;;;;;5014045;28;20042;-75
2022/07/10 05:33:26;;;;;;;6.45;1.13;;;;;;;;;;5014411;28;20036;-75
2022/07/10 05:35:52;;;;;;;9.80;1.10;;;;;;;;;;5014298;28;20050;-75
2022/07/10 05:38:18;;;;;;;11.80;1.10;;;;;;;;;;5014397;28;20026;-75
2022/07/10 05:40:44;;;;;;;10.25;1.45;;;;;;;;;;5014236;28;20026;-74
2022/07/10 05:43:11;;;;;;;16.42;1.50;;;;;;;;;;5014130;28;20030;-75
2022/07/10 05:45:37;;;;;;;11.10;1.10;;;;;;;;;;5013878;28;20030;-75
2022/07/10 05:48:03;;;;;;;6.30;1.40;;;;;;;;;;5014045;28;20038;-74
2022/07/10 05:50:30;;;;;;;8.50;1.45;;;;;;;;;;5013412;28;20029;-75
2022/07/10 05:52:56;;;;;;;7.40;1.90;;;;;;;;;;5013831;28;20026;-74
2022/07/10 05:55:23;;;;;;;14.23;1.40;;;;;;;;;;5013620;28;20032;-74
2022/07/10 05:57:50;;;;;;;10.90;1.38;;;;;;;;;;5012626;28;20022;-75
2022/07/10 06:00:16;;;;;;;11.38;1.45;;;;;;;;;;5013763;28;20057;-74
2022/07/10 06:02:42;;;;;;;11.68;1.60;;;;;;;;;;5013961;28;20115;-74
2022/07/10 06:05:09;;;;;;;6.85;1.30;;;;;;;;;;5013588;28;20092;-75
2022/07/10 06:07:35;;;;;;;7.85;1.30;;;;;;;;;;5018171;28;20028;-74
2022/07/10 06:10:02;;;;;;;10.27;1.50;;;;;;;;;;5033453;28;20036;-75
2022/07/10 06:12:28;;;;;;;7.60;1.42;;;;;;;;;;5033423;28;20033;-74
2022/07/10 06:14:54;;;;;;;4.68;0.93;;;;;;;;;;5033305;28;20030;-75
2022/07/10 06:17:20;;;;;;;8.75;1.88;;;;;;;;;;5028138;28;20018;-75
2022/07/10 06:19:46;;;;;;;12.73;1.20;;;;;;;;;;5013437;28;20097;-75
2022/07/10 06:22:30;;;;;;;6.97;1.50;;;;;;;;;;5013297;28;20113;-75
2022/07/10 06:24:57;;;;;;;10.20;1.60;;;;;;;;;;5013422;28;20033;-75
2022/07/10 06:27:23;;;;;;;5.53;1.73;;;;;;;;;;5013433;28;20037;-75
2022/07/10 06:29:49;;;;;;;9.63;1.50;;;;;;;;;;5012912;28;20034;-75
2022/07/10 06:32:16;;;;;;;10.10;1.50;;;;;;;;;;5013066;28;20026;-75
2022/07/10 06:34:42;;;;;;;13.05;1.52;;;;;;;;;;5013269;28;20690;-74
2022/07/10 06:37:08;;;;;;;8.05;1.58;;;;;;;;;;5013034;28;20495;-75
2022/07/10 06:39:37;;;;;;;8.60;1.42;;;;;;;;;;5013162;28;20037;-75
2022/07/10 06:42:03;;;;;;;9.43;1.33;;;;;;;;;;5013129;28;20488;-75
2022/07/10 06:44:29;;;;;;;9.45;1.23;;;;;;;;;;5012968;28;20105;-75
2022/07/10 06:49:40;;;;;;;7.18;1.35;;;;;;;;;;5012981;28;20111;-75
2022/07/10 06:52:07;;;;;;;8.95;1.50;;;;;;;;;;5012738;28;20045;-75
2022/07/10 06:54:33;;;;;;;8.43;1.38;;;;;;;;;;5012902;28;20041;-74
2022/07/10 06:56:59;;;;;;;10.35;1.45;;;;;;;;;;5012816;28;20101;-75
2022/07/10 06:59:25;;;;;;;11.05;1.70;;;;;;;;;;5012736;28;20030;-75
2022/07/10 07:01:51;;;;;;;7.82;1.33;;;;;;;;;;5011970;28;20468;-74
2022/07/10 07:04:17;;;;;;;8.43;1.48;;;;;;;;;;5012821;28;20034;-74
2022/07/10 07:06:43;;;;;;;8.80;1.25;;;;;;;;;;5012438;28;20033;-75
2022/07/10 07:09:10;;;;;;;8.63;1.58;;;;;;;;;;5029833;28;20451;-75
2022/07/10 07:11:36;;;;;;;13.15;1.40;;;;;;;;;;5032069;28;20021;-75
2022/07/10 07:14:02;;;;;;;6.35;1.55;;;;;;;;;;5032307;28;20033;-74
2022/07/10 07:16:38;;;;;;;10.02;1.40;;;;;;;;;;5032006;28;20026;-75
2022/07/10 07:19:05;;;;;;;10.02;1.80;;;;;;;;;;5012929;28;20105;-75
2022/07/10 07:24:18;;;;;;;7.35;1.10;;;;;;;;;;5012498;28;20474;-75
2022/07/10 07:26:46;;;;;;;4.57;0.98;;;;;;;;;;5012375;28;20026;-74
2022/07/10 07:29:13;;;;;;;11.35;1.70;;;;;;;;;;5012497;28;20095;-74
2022/07/10 07:31:39;;;;;;;13.02;1.40;;;;;;;;;;5010548;28;20381;-74
2022/07/10 07:34:05;;;;;;;7.53;1.20;;;;;;;;;;5012425;28;20096;-75
2022/07/10 07:36:31;;;;;;;7.43;2.17;;;;;;;;;;5012085;28;20042;-74
2022/07/10 07:38:57;;;;;;;5.97;1.13;;;;;;;;;;5012307;28;20099;-74
2022/07/10 07:41:23;;;;;;;9.60;1.30;;;;;;;;;;5012169;28;20061;-74
2022/07/10 07:43:49;;;;;;;4.82;1.02;;;;;;;;;;5012342;28;20053;-74
2022/07/10 07:46:15;;;;;;;11.90;1.58;;;;;;;;;;5010579;28;20472;-75
2022/07/10 07:48:42;;;;;;;8.82;1.58;;;;;;;;;;5012148;28;20482;-74
2022/07/10 07:51:08;;;;;;;5.70;1.20;;;;;;;;;;5011768;28;20050;-74
2022/07/10 07:53:34;;;;;;;6.68;1.20;;;;;;;;;;5012211;28;20542;-74
2022/07/10 07:56:00;;;;;;;10.70;1.42;;;;;;;;;;5012075;28;20397;-75
2022/07/10 07:58:26;;;;;;;5.38;1.10;;;;;;;;;;5012089;28;20033;-74
2022/07/10 08:00:52;;;;;;;5.28;1.15;;;;;;;;;;5011940;28;20030;-75
2022/07/10 08:03:18;;;;;;;6.57;1.27;;;;;;;;;;5012029;28;20049;-74
2022/07/10 08:05:44;;;;;;;5.05;1.10;;;;;;;;;;5011754;28;20423;-74
2022/07/10 08:08:10;;;;;;;6.80;1.13;;;;;;;;;;5019709;28;20053;-74
2022/07/10 08:10:36;;;;;;;7.82;1.42;;;;;;;;;;5031654;28;20087;-74
2022/07/10 08:13:03;;;;;;;7.82;1.38;;;;;;;;;;5033036;28;20030;-74
2022/07/10 08:15:29;;;;;;;9.77;1.58;;;;;;;;;;5035369;28;20054;-75
2022/07/10 08:17:57;;;;;;;4.90;1.10;;;;;;;;;;5025612;28;20022;-74
2022/07/10 08:20:24;;;;;;;10.02;1.20;;;;;;;;;;5015599;28;20096;-74
2022/07/10 08:22:51;;;;;;;9.20;1.40;;;;;;;;;;5015615;28;20033;-74
2022/07/10 08:25:17;;;;;;;6.50;1.20;;;;;;;;;;5015552;28;20117;-74
2022/07/10 08:27:43;;;;;;;10.82;1.40;;;;;;;;;;5015694;28;20026;-74
2022/07/10 08:30:10;;;;;;;5.38;1.30;;;;;;;;;;5015321;28;20053;-74
2022/07/10 08:32:36;;;;;;;7.30;1.40;;;;;;;;;;5014168;28;20026;-74
2022/07/10 08:35:03;;;;;;;6.63;1.30;;;;;;;;;;5015341;28;20024;-74
2022/07/10 08:37:29;;;;;;;6.57;1.25;;;;;;;;;;5015532;28;20033;-74
2022/07/10 08:39:55;;;;;;;4.03;1.30;;;;;;;;;;5015394;28;20736;-74
2022/07/10 08:42:22;;;;;;;5.72;1.20;;;;;;;;;;5015427;28;20401;-74
2022/07/10 08:44:48;;;;;;;3.95;0.85;;;;;;;;;;5015305;28;20056;-75
2022/07/10 08:47:14;;;;;;;3.55;0.93;;;;;;;;;;5015245;28;20033;-74
2022/07/10 08:49:46;;;;;;;4.97;1.33;;;;;;;;;;5015238;28;20030;-74
2022/07/10 08:52:26;;;;;;;1.83;0.80;;;;;;;;;;5015037;28;20531;-74
2022/07/10 08:54:52;;;;;;;6.15;1.20;;;;;;;;;;5013738;28;20077;-74
2022/07/10 08:57:19;;;;;;;5.32;0.90;;;;;;;;;;5015209;28;20026;-75
2022/07/10 08:59:45;;;;;;;5.25;1.33;;;;;;;;;;5015083;28;20030;-75
2022/07/10 09:02:11;;;;;;;5.10;1.10;;;;;;;;;;5014913;28;20030;-75
2022/07/10 09:04:37;;;;;;;4.18;0.90;;;;;;;;;;5014887;28;20049;-74
2022/07/10 09:07:04;;;;;;;6.72;1.05;;;;;;;;;;5014721;28;20033;-74
2022/07/10 09:09:30;;;;;;;5.80;1.63;;;;;;;;;;5034519;28;20476;-74
2022/07/10 09:11:59;;;;;;;4.35;1.25;;;;;;;;;;5033048;28;20631;-75
2022/07/10 09:14:27;;;;;;;1.98;0.90;;;;;;;;;;5034551;28;20030;-74
2022/07/10 09:16:53;;;;;;;5.53;1.50;;;;;;;;;;5032863;28;20021;-74
2022/07/10 09:19:24;;;;;;;4.88;1.02;;;;;;;;;;5014537;28;20045;-75
2022/07/10 09:21:51;;;;;;;3.78;0.90;;;;;;;;;;5014632;28;20022;-75
2022/07/10 09:24:19;;;;;;;7.40;1.10;;;;;;;;;;5012625;28;20422;-75
2022/07/10 09:26:48;;;;;;;2.75;1.00;;;;;;;;;;5014507;28;20105;-74
2022/07/10 09:29:14;;;;;;;5.88;1.13;;;;;;;;;;5014659;28;20380;-74
2022/07/10 09:31:53;;;;;;;7.60;1.10;;;;;;;;;;5012494;28;20372;-74
2022/07/10 09:34:36;;;;;;;3.63;1.08;;;;;;;;;;5014311;28;20049;-74
2022/07/10 09:37:21;;;;;;;5.00;0.80;;;;;;;;;;5012869;28;20026;-75
2022/07/10 09:39:54;;;;;;;2.92;0.95;;;;;;;;;;5014209;28;20392;-74
2022/07/10 09:42:30;;;;;;;4.80;0.90;;;;;;;;;;5014099;28;20038;-74
2022/07/10 09:45:13;;;;;;;5.03;1.00;;;;;;;;;;5014178;28;20120;-74
2022/07/10 09:47:40;;;;;;;3.65;0.90;;;;;;;;;;5014176;28;20105;-74
2022/07/10 09:50:24;;;;;;;3.65;1.00;;;;;;;;;;5013920;28;20041;-75
2022/07/10 09:52:57;;;;;;;5.00;0.70;;;;;;;;;;5014062;28;20105;-75
2022/07/10 09:55:26;;;;;;;7.97;0.90;;;;;;;;;;5013936;28;20118;-75
2022/07/10 09:57:59;;;;;;;1.55;0.77;;;;;;;;;;5013949;28;20022;-75
2022/07/10 10:00:28;;;;;;;3.72;0.95;;;;;;;;;;5013739;28;20018;-74
2022/07/10 10:03:02;;;;;;;2.88;0.85;;;;;;;;;;5013981;28;20030;-75
2022/07/10 10:05:35;;;;;;;3.53;0.90;;;;;;;;;;5013660;28;20088;-75
2022/07/10 10:08:04;;;;;;;5.00;1.05;;;;;;;;;;5021705;28;20471;-75
2022/07/10 10:10:32;;;;;;;1.90;0.77;;;;;;;;;;5033586;28;20468;-75
2022/07/10 10:12:59;;;;;;;1.83;0.77;;;;;;;;;;5033551;28;20067;-75
2022/07/10 10:15:26;;;;;;;7.63;1.02;;;;;;;;;;5033239;28;20032;-75
2022/07/10 10:17:53;;;;;;;7.75;1.30;;;;;;;;;;5023940;28;20022;-75
2022/07/10 10:20:41;;;;;;;6.28;0.75;;;;;;;;;;5011876;28;20168;-75
2022/07/10 10:23:11;;;;;;;3.60;0.82;;;;;;;;;;5012189;28;20117;-75
2022/07/10 10:25:38;;;;;;;1.90;0.77;;;;;;;;;;5013399;28;20668;-74
2022/07/10 10:28:06;;;;;;;4.28;0.90;;;;;;;;;;5013390;28;20461;-75
2022/07/10 10:30:32;;;;;;;2.28;0.77;;;;;;;;;;5013022;28;20041;-75
2022/07/10 10:32:59;;;;;;;4.40;1.85;;;;;;;;;;5013337;28;20022;-75
2022/07/10 10:35:46;;;;;;;2.70;1.00;;;;;;;;;;5012886;28;20386;-75
2022/07/10 10:38:13;;;;;;;6.68;0.98;;;;;;;;;;5012570;28;20494;-75
2022/07/10 10:40:39;;;;;;;2.58;0.73;;;;;;;;;;5013043;28;20058;-75
2022/07/10 10:43:25;;;;;;;4.43;1.13;;;;;;;;;;5011540;28;20133;-74
2022/07/10 10:45:51;;;;;;;3.25;0.90;;;;;;;;;;5012702;28;20022;-74
2022/07/10 10:48:20;;;;;;;4.80;0.82;;;;;;;;;;5013148;28;20029;-75
2022/07/10 10:50:49;;;;;;;1.40;0.73;;;;;;;;;;5012678;28;20029;-75
2022/07/10 10:53:28;;;;;;;6.03;1.08;;;;;;;;;;5011548;28;20026;-75
2022/07/10 10:56:00;;;;;;;5.25;1.40;;;;;;;;;;5012824;28;20026;-75
2022/07/10 10:58:43;;;;;;;3.45;1.00;;;;;;;;;;5012846;28;20478;-75
2022/07/10 11:01:21;;;;;;;3.65;1.05;;;;;;;;;;5011215;28;20030;-75
2022/07/10 11:04:06;;;;;;;6.07;1.35;;;;;;;;;;5012838;28;20034;-75
2022/07/10 11:06:51;;;;;;;6.32;1.10;;;;;;;;;;5012439;28;20026;-75
2022/07/10 11:09:24;;;;;;;2.90;0.90;;;;;;;;;;5030788;28;20131;-75
2022/07/10 11:12:09;;;;;;;2.90;0.80;;;;;;;;;;5032257;28;20029;-75
2022/07/10 11:14:45;;;;;;;4.90;1.20;;;;;;;;;;5032423;28;20452;-75
2022/07/10 11:17:11;;;;;;;1.88;0.80;;;;;;;;;;5028398;28;20017;-75
2022/07/10 11:19:37;;;;;;;6.40;1.30;;;;;;;;;;5012442;28;20022;-75
2022/07/10 11:22:21;;;;;;;2.78;0.90;;;;;;;;;;5012434;28;20041;-75
2022/07/10 11:24:56;;;;;;;1.95;0.90;;;;;;;;;;5012359;28;20022;-75
2022/07/10 11:27:28;;;;;;;8.93;0.80;;;;;;;;;;5012383;28;20088;-74
2022/07/10 11:29:57;;;;;;;2.90;0.77;;;;;;;;;;5012101;28;20041;-75
2022/07/10 11:32:23;;;;;;;4.32;0.90;;;;;;;;;;5012105;28;20026;-75
2022/07/10 11:34:50;;;;;;;1.85;0.80;;;;;;;;;;5012191;28;20041;-75
2022/07/10 11:37:16;;;;;;;2.70;0.80;;;;;;;;;;5010766;28;20417;-75
2022/07/10 11:39:42;;;;;;;2.45;0.70;;;;;;;;;;5012160;28;20061;-74
2022/07/10 11:42:09;;;;;;;7.47;0.95;;;;;;;;;;5012195;28;20087;-74
2022/07/10 11:44:35;;;;;;;3.92;1.08;;;;;;;;;;5012178;28;20029;-75
2022/07/10 11:47:02;;;;;;;3.67;0.90;;;;;;;;;;5011915;28;20034;-75
2022/07/10 11:49:29;;;;;;;3.67;0.88;;;;;;;;;;5011793;28;20029;-75
2022/07/10 11:52:01;;;;;;;4.07;0.70;;;;;;;;;;5011842;28;20065;-75
2022/07/10 11:54:27;;;;;;;3.53;1.10;;;;;;;;;;5012070;28;20030;-75
2022/07/10 11:56:53;;;;;;;2.55;1.00;;;;;;;;;;5012029;28;20029;-75
2022/07/10 11:59:24;;;;;;;3.72;0.85;;;;;;;;;;5012102;28;20152;-75
2022/07/10 12:01:51;;;;;;;3.00;0.80;;;;;;;;;;5011898;28;20040;-74
2022/07/10 12:04:18;;;;;;;4.07;1.00;;;;;;;;;;5012152;28;20117;-75
2022/07/10 12:06:45;;;;;;;9.18;0.98;;;;;;;;;;5011574;28;20396;-75
2022/07/10 12:09:15;;;;;;;2.75;0.80;;;;;;;;;;5029304;28;20549;-75
2022/07/10 12:11:42;;;;;;;2.38;0.90;;;;;;;;;;5032258;28;20044;-75
2022/07/10 12:14:12;;;;;;;7.28;1.23;;;;;;;;;;5031896;28;20026;-75
2022/07/10 12:16:38;;;;;;;3.33;1.00;;;;;;;;;;5031636;28;20018;-75
2022/07/10 12:19:07;;;;;;;3.45;0.90;;;;;;;;;;5012530;28;20022;-75
2022/07/10 12:21:33;;;;;;;2.80;0.80;;;;;;;;;;5011993;28;20032;-75
2022/07/10 12:24:02;;;;;;;5.72;0.85;;;;;;;;;;5012183;28;20030;-75
2022/07/10 12:26:38;;;;;;;3.80;0.90;;;;;;;;;;5011784;28;20101;-75
2022/07/10 12:29:04;;;;;;;3.80;1.10;;;;;;;;;;5011813;28;20037;-74
2022/07/10 12:31:38;;;;;;;2.88;1.27;;;;;;;;;;5011429;28;20050;-75
2022/07/10 12:34:06;;;;;;;3.35;1.00;;;;;;;;;;5011722;28;20022;-75
2022/07/10 12:36:45;;;;;;;3.45;1.02;;;;;;;;;;5011570;28;20018;-75
2022/07/10 12:39:11;;;;;;;4.05;1.30;;;;;;;;;;5011643;28;20484;-74
2022/07/10 12:41:56;;;;;;;3.95;1.17;;;;;;;;;;5011672;28;20488;-75
2022/07/10 12:44:41;;;;;;;5.20;0.80;;;;;;;;;;5011604;28;20026;-75
2022/07/10 12:47:14;;;;;;;3.63;0.95;;;;;;;;;;5011555;28;20034;-75
2022/07/10 12:49:55;;;;;;;3.13;1.17;;;;;;;;;;5011530;28;20030;-75
2022/07/10 12:52:28;;;;;;;7.97;1.30;;;;;;;;;;5011378;28;20371;-74
2022/07/10 12:55:10;;;;;;;2.97;0.85;;;;;;;;;;5011532;28;20026;-75
2022/07/10 12:57:48;;;;;;;5.70;1.10;;;;;;;;;;5011552;28;20030;-75
2022/07/10 13:00:15;;;;;;;2.85;1.00;;;;;;;;;;5027761;28;20423;-75
2022/07/10 13:02:41;;;;;;;3.17;1.00;;;;;;;;;;5015064;28;20025;-75
2022/07/10 13:05:07;;;;;;;4.00;0.90;;;;;;;;;;5014853;28;20052;-75
2022/07/10 13:07:35;;;;;;;4.93;0.95;;;;;;;;;;5018984;28;20083;-75
2022/07/10 13:10:04;;;;;;;4.18;1.20;;;;;;;;;;5033225;28;20401;-75
2022/07/10 13:12:30;;;;;;;8.48;1.05;;;;;;;;;;5034408;28;20040;-75
2022/07/10 13:14:56;;;;;;;4.05;1.00;;;;;;;;;;5034497;28;20033;-75
2022/07/10 13:17:23;;;;;;;5.85;1.02;;;;;;;;;;5029105;28;20384;-75
2022/07/10 13:19:49;;;;;;;2.60;0.75;;;;;;;;;;5014567;28;20026;-75
2022/07/10 13:22:15;;;;;;;2.80;0.90;;;;;;;;;;5014612;28;20442;-75
2022/07/10 13:24:41;;;;;;;5.00;1.00;;;;;;;;;;5014552;28;20045;-75
2022/07/10 13:27:07;;;;;;;2.85;0.90;;;;;;;;;;5014517;28;20038;-75
2022/07/10 13:29:33;;;;;;;3.28;0.98;;;;;;;;;;5014567;28;20041;-75
2022/07/10 13:31:59;;;;;;;5.05;1.10;;;;;;;;;;5014085;28;20042;-75
2022/07/10 13:34:25;;;;;;;6.10;0.80;;;;;;;;;;5012979;28;20526;-74
2022/07/10 13:36:53;;;;;;;5.82;0.70;;;;;;;;;;5014217;28;20049;-74
2022/07/10 13:39:19;;;;;;;2.78;0.82;;;;;;;;;;5014153;28;20032;-75
2022/07/10 13:41:46;;;;;;;3.80;0.98;;;;;;;;;;5014160;28;20026;-75
2022/07/10 13:44:12;;;;;;;2.15;0.90;;;;;;;;;;5014299;28;20100;-75
2022/07/10 13:46:39;;;;;;;2.60;0.80;;;;;;;;;;5013953;28;20038;-74
2022/07/10 13:49:05;;;;;;;5.03;1.00;;;;;;;;;;5014158;28;20063;-74
2022/07/10 13:51:32;;;;;;;3.40;1.00;;;;;;;;;;5013891;28;20099;-75
2022/07/10 13:53:58;;;;;;;2.67;0.80;;;;;;;;;;5014148;28;20475;-75
2022/07/10 13:56:25;;;;;;;3.92;1.20;;;;;;;;;;5013990;28;20105;-75
2022/07/10 13:58:51;;;;;;;3.80;0.80;;;;;;;;;;5014072;28;20026;-75
2022/07/10 14:01:17;;;;;;;4.43;1.10;;;;;;;;;;5013755;28;20551;-75
2022/07/10 14:03:43;;;;;;;3.90;0.90;;;;;;;;;;5013920;28;20384;-75
2022/07/10 14:06:10;;;;;;;1.55;0.75;;;;;;;;;;5013613;28;20445;-75
2022/07/10 14:08:36;;;;;;;4.07;0.80;;;;;;;;;;5026429;28;20033;-75
2022/07/10 14:11:02;;;;;;;5.20;0.90;;;;;;;;;;5033524;28;20120;-75
2022/07/10 14:13:28;;;;;;;2.80;0.90;;;;;;;;;;5033479;28;20033;-75
2022/07/10 14:15:54;;;;;;;4.88;1.23;;;;;;;;;;5033261;28;20480;-75
2022/07/10 14:18:41;;;;;;;4.72;0.90;;;;;;;;;;5020211;28;20030;-74
2022/07/10 14:21:08;;;;;;;6.20;1.10;;;;;;;;;;5013224;28;20029;-75
2022/07/10 14:23:34;;;;;;;3.13;0.90;;;;;;;;;;5013484;28;20028;-75
2022/07/10 14:26:00;;;;;;;3.95;1.27;;;;;;;;;;5013443;28;20037;-75
2022/07/10 14:28:26;;;;;;;3.03;1.20;;;;;;;;;;5013417;28;20022;-75
2022/07/10 14:30:53;;;;;;;2.85;1.10;;;;;;;;;;5012990;28;20037;-75
2022/07/10 14:33:19;;;;;;;5.88;1.17;;;;;;;;;;5013332;28;20436;-75
2022/07/10 14:35:45;;;;;;;3.20;0.75;;;;;;;;;;5013412;28;20101;-75
2022/07/10 14:38:11;;;;;;;6.03;1.10;;;;;;;;;;5013288;28;20108;-75
2022/07/10 14:40:37;;;;;;;5.50;1.20;;;;;;;;;;5013231;28;20145;-75
2022/07/10 14:43:03;;;;;;;5.45;1.10;;;;;;;;;;5013245;28;20032;-75
2022/07/10 14:45:29;;;;;;;9.60;1.35;;;;;;;;;;5012811;28;20030;-75
2022/07/10 14:47:56;;;;;;;4.88;1.20;;;;;;;;;;5013127;28;20427;-74
2022/07/10 14:50:23;;;;;;;4.78;1.30;;;;;;;;;;5012829;28;20106;-75
2022/07/10 14:52:49;;;;;;;4.22;1.33;;;;;;;;;;5012961;28;20113;-75